sensor_id;sensor_type;location;lat;lon;timestamp;P1;durP1;ratioP1;P2;durP2;ratioP2
62933;SDS011;49038;47.600;19.242;2022-10-16T00:00:28;5.12;;;3.22;;
62933;SDS011;49038;47.600;19.242;2022-10-16T00:03:31;4.47;;;3.25;;
62933;SDS011;49038;47.600;19.242;2022-10-16T00:06:33;7.47;;;3.55;;
62933;SDS011;49038;47.600;19.242;2022-10-16T00:09:35;7.97;;;3.30;;
62933;SDS011;49038;47.600;19.242;2022-10-16T00:12:37;8.60;;;3.40;;
62933;SDS011;49038;47.600;19.242;2022-10-16T00:15:40;5.95;;;3.22;;
62933;SDS011;49038;47.600;19.242;2022-10-16T00:18:45;5.80;;;3.30;;
62933;SDS011;49038;47.600;19.242;2022-10-16T00:21:47;5.70;;;3.20;;
62933;SDS011;49038;47.600;19.242;2022-10-16T00:24:49;4.72;;;3.58;;
62933;SDS011;49038;47.600;19.242;2022-10-16T00:27:52;5.22;;;3.33;;
62933;SDS011;49038;47.600;19.242;2022-10-16T00:30:54;5.47;;;3.50;;
62933;SDS011;49038;47.600;19.242;2022-10-16T00:33:56;4.90;;;3.12;;
62933;SDS011;49038;47.600;19.242;2022-10-16T00:36:58;5.10;;;3.30;;
62933;SDS011;49038;47.600;19.242;2022-10-16T00:40:00;6.53;;;3.22;;
62933;SDS011;49038;47.600;19.242;2022-10-16T00:43:04;4.97;;;3.47;;
62933;SDS011;49038;47.600;19.242;2022-10-16T00:49:27;4.75;;;3.20;;
62933;SDS011;49038;47.600;19.242;2022-10-16T00:52:29;5.12;;;3.72;;
62933;SDS011;49038;47.600;19.242;2022-10-16T00:55:31;7.72;;;3.45;;
62933;SDS011;49038;47.600;19.242;2022-10-16T00:58:34;6.32;;;3.90;;
62933;SDS011;49038;47.600;19.242;2022-10-16T01:01:36;9.27;;;3.42;;
62933;SDS011;49038;47.600;19.242;2022-10-16T01:04:48;3.58;;;3.00;;
62933;SDS011;49038;47.600;19.242;2022-10-16T01:21:36;7.57;;;2.80;;
62933;SDS011;49038;47.600;19.242;2022-10-16T01:24:45;4.03;;;3.00;;
62933;SDS011;49038;47.600;19.242;2022-10-16T01:27:50;4.65;;;3.25;;
62933;SDS011;49038;47.600;19.242;2022-10-16T01:30:53;6.45;;;2.90;;
62933;SDS011;49038;47.600;19.242;2022-10-16T01:34:03;4.70;;;3.03;;
62933;SDS011;49038;47.600;19.242;2022-10-16T01:37:18;8.75;;;3.30;;
62933;SDS011;49038;47.600;19.242;2022-10-16T01:40:26;4.20;;;3.05;;
62933;SDS011;49038;47.600;19.242;2022-10-16T01:43:30;4.72;;;3.00;;
62933;SDS011;49038;47.600;19.242;2022-10-16T01:46:36;5.10;;;3.15;;
62933;SDS011;49038;47.600;19.242;2022-10-16T01:49:39;6.72;;;3.00;;
62933;SDS011;49038;47.600;19.242;2022-10-16T01:52:43;4.93;;;2.90;;
62933;SDS011;49038;47.600;19.242;2022-10-16T01:55:47;4.45;;;3.10;;
62933;SDS011;49038;47.600;19.242;2022-10-16T01:59:01;5.12;;;3.15;;
62933;SDS011;49038;47.600;19.242;2022-10-16T02:02:07;6.87;;;3.10;;
62933;SDS011;49038;47.600;19.242;2022-10-16T02:05:33;5.35;;;3.12;;
62933;SDS011;49038;47.600;19.242;2022-10-16T02:08:38;5.75;;;3.05;;
62933;SDS011;49038;47.600;19.242;2022-10-16T02:11:42;6.30;;;3.30;;
62933;SDS011;49038;47.600;19.242;2022-10-16T02:14:45;3.60;;;3.08;;
62933;SDS011;49038;47.600;19.242;2022-10-16T02:17:47;3.37;;;2.75;;
62933;SDS011;49038;47.600;19.242;2022-10-16T02:20:53;4.53;;;3.05;;
62933;SDS011;49038;47.600;19.242;2022-10-16T02:24:01;3.90;;;3.00;;
62933;SDS011;49038;47.600;19.242;2022-10-16T02:27:06;3.80;;;2.72;;
62933;SDS011;49038;47.600;19.242;2022-10-16T02:33:23;4.62;;;2.65;;
62933;SDS011;49038;47.600;19.242;2022-10-16T02:36:27;4.60;;;3.03;;
62933;SDS011;49038;47.600;19.242;2022-10-16T02:39:29;4.20;;;3.12;;
62933;SDS011;49038;47.600;19.242;2022-10-16T02:42:35;6.90;;;3.42;;
62933;SDS011;49038;47.600;19.242;2022-10-16T02:45:39;8.50;;;2.97;;
62933;SDS011;49038;47.600;19.242;2022-10-16T02:48:41;4.40;;;2.85;;
62933;SDS011;49038;47.600;19.242;2022-10-16T02:51:43;7.85;;;2.90;;
62933;SDS011;49038;47.600;19.242;2022-10-16T02:54:46;4.90;;;3.35;;
62933;SDS011;49038;47.600;19.242;2022-10-16T02:57:48;3.85;;;2.42;;
62933;SDS011;49038;47.600;19.242;2022-10-16T03:00:50;6.93;;;2.83;;
62933;SDS011;49038;47.600;19.242;2022-10-16T03:03:52;3.62;;;2.72;;
62933;SDS011;49038;47.600;19.242;2022-10-16T03:06:55;5.25;;;3.20;;
62933;SDS011;49038;47.600;19.242;2022-10-16T03:09:57;5.47;;;2.85;;
62933;SDS011;49038;47.600;19.242;2022-10-16T03:13:01;4.47;;;2.90;;
62933;SDS011;49038;47.600;19.242;2022-10-16T03:16:04;4.45;;;2.95;;
62933;SDS011;49038;47.600;19.242;2022-10-16T03:19:06;3.90;;;2.78;;
62933;SDS011;49038;47.600;19.242;2022-10-16T03:22:08;5.20;;;3.33;;
62933;SDS011;49038;47.600;19.242;2022-10-16T03:25:10;5.50;;;3.10;;
62933;SDS011;49038;47.600;19.242;2022-10-16T03:28:13;4.60;;;2.72;;
62933;SDS011;49038;47.600;19.242;2022-10-16T03:31:15;4.90;;;3.37;;
62933;SDS011;49038;47.600;19.242;2022-10-16T03:34:17;5.07;;;2.80;;
62933;SDS011;49038;47.600;19.242;2022-10-16T03:37:19;3.85;;;2.53;;
62933;SDS011;49038;47.600;19.242;2022-10-16T03:40:22;8.15;;;3.00;;
62933;SDS011;49038;47.600;19.242;2022-10-16T03:43:24;5.47;;;2.92;;
62933;SDS011;49038;47.600;19.242;2022-10-16T03:46:26;3.83;;;2.70;;
62933;SDS011;49038;47.600;19.242;2022-10-16T03:49:28;4.05;;;2.80;;
62933;SDS011;49038;47.600;19.242;2022-10-16T03:52:30;5.25;;;3.15;;
62933;SDS011;49038;47.600;19.242;2022-10-16T03:55:34;5.35;;;3.00;;
62933;SDS011;49038;47.600;19.242;2022-10-16T03:58:36;3.97;;;2.67;;
62933;SDS011;49038;47.600;19.242;2022-10-16T04:01:39;4.72;;;2.95;;
62933;SDS011;49038;47.600;19.242;2022-10-16T04:04:41;8.38;;;3.03;;
62933;SDS011;49038;47.600;19.242;2022-10-16T04:07:43;9.25;;;3.03;;
62933;SDS011;49038;47.600;19.242;2022-10-16T04:10:45;4.97;;;2.62;;
62933;SDS011;49038;47.600;19.242;2022-10-16T04:13:47;5.80;;;3.15;;
62933;SDS011;49038;47.600;19.242;2022-10-16T04:16:50;4.20;;;2.95;;
62933;SDS011;49038;47.600;19.242;2022-10-16T04:19:52;7.22;;;3.30;;
62933;SDS011;49038;47.600;19.242;2022-10-16T04:22:54;4.25;;;2.80;;
62933;SDS011;49038;47.600;19.242;2022-10-16T04:25:56;4.30;;;3.25;;
62933;SDS011;49038;47.600;19.242;2022-10-16T04:28:59;4.00;;;3.08;;
62933;SDS011;49038;47.600;19.242;2022-10-16T04:32:01;6.87;;;3.22;;
62933;SDS011;49038;47.600;19.242;2022-10-16T04:35:03;3.87;;;2.90;;
62933;SDS011;49038;47.600;19.242;2022-10-16T04:38:06;3.72;;;2.87;;
62933;SDS011;49038;47.600;19.242;2022-10-16T04:41:08;5.15;;;2.92;;
62933;SDS011;49038;47.600;19.242;2022-10-16T04:44:10;21.40;;;9.02;;
62933;SDS011;49038;47.600;19.242;2022-10-16T04:47:12;80.68;;;32.45;;
62933;SDS011;49038;47.600;19.242;2022-10-16T04:50:15;163.68;;;70.75;;
62933;SDS011;49038;47.600;19.242;2022-10-16T04:53:17;185.75;;;86.80;;
62933;SDS011;49038;47.600;19.242;2022-10-16T04:56:19;159.90;;;72.07;;
62933;SDS011;49038;47.600;19.242;2022-10-16T04:59:22;156.18;;;71.22;;
62933;SDS011;49038;47.600;19.242;2022-10-16T05:02:24;101.55;;;45.97;;
62933;SDS011;49038;47.600;19.242;2022-10-16T05:05:27;105.10;;;46.00;;
62933;SDS011;49038;47.600;19.242;2022-10-16T05:08:29;16.85;;;10.15;;
62933;SDS011;49038;47.600;19.242;2022-10-16T05:11:31;21.10;;;9.50;;
62933;SDS011;49038;47.600;19.242;2022-10-16T05:14:34;36.92;;;14.55;;
62933;SDS011;49038;47.600;19.242;2022-10-16T05:17:36;37.22;;;16.30;;
62933;SDS011;49038;47.600;19.242;2022-10-16T05:20:44;25.88;;;11.20;;
62933;SDS011;49038;47.600;19.242;2022-10-16T05:23:47;14.38;;;7.40;;
62933;SDS011;49038;47.600;19.242;2022-10-16T05:26:49;12.37;;;6.78;;
62933;SDS011;49038;47.600;19.242;2022-10-16T05:29:51;9.50;;;5.55;;
62933;SDS011;49038;47.600;19.242;2022-10-16T05:32:54;10.10;;;5.32;;
62933;SDS011;49038;47.600;19.242;2022-10-16T05:35:56;13.40;;;6.53;;
62933;SDS011;49038;47.600;19.242;2022-10-16T05:38:58;9.52;;;5.30;;
62933;SDS011;49038;47.600;19.242;2022-10-16T05:42:00;8.75;;;4.37;;
62933;SDS011;49038;47.600;19.242;2022-10-16T05:45:03;11.30;;;4.45;;
62933;SDS011;49038;47.600;19.242;2022-10-16T05:48:06;7.68;;;4.82;;
62933;SDS011;49038;47.600;19.242;2022-10-16T05:51:09;10.60;;;6.60;;
62933;SDS011;49038;47.600;19.242;2022-10-16T05:54:12;10.20;;;4.95;;
62933;SDS011;49038;47.600;19.242;2022-10-16T05:57:14;8.27;;;4.97;;
62933;SDS011;49038;47.600;19.242;2022-10-16T06:00:17;8.55;;;4.00;;
62933;SDS011;49038;47.600;19.242;2022-10-16T06:03:19;8.85;;;4.40;;
62933;SDS011;49038;47.600;19.242;2022-10-16T06:06:22;8.02;;;4.60;;
62933;SDS011;49038;47.600;19.242;2022-10-16T06:09:27;7.95;;;5.20;;
62933;SDS011;49038;47.600;19.242;2022-10-16T06:12:29;10.75;;;6.25;;
62933;SDS011;49038;47.600;19.242;2022-10-16T06:15:32;5.78;;;3.85;;
62933;SDS011;49038;47.600;19.242;2022-10-16T06:18:34;5.85;;;4.20;;
62933;SDS011;49038;47.600;19.242;2022-10-16T06:21:36;8.98;;;4.57;;
62933;SDS011;49038;47.600;19.242;2022-10-16T06:24:38;5.32;;;3.70;;
62933;SDS011;49038;47.600;19.242;2022-10-16T06:27:40;7.70;;;4.00;;
62933;SDS011;49038;47.600;19.242;2022-10-16T06:30:43;4.90;;;3.40;;
62933;SDS011;49038;47.600;19.242;2022-10-16T06:33:50;5.62;;;3.72;;
62933;SDS011;49038;47.600;19.242;2022-10-16T06:36:52;3.53;;;2.60;;
62933;SDS011;49038;47.600;19.242;2022-10-16T06:39:54;5.43;;;3.28;;
62933;SDS011;49038;47.600;19.242;2022-10-16T06:42:57;4.37;;;3.20;;
62933;SDS011;49038;47.600;19.242;2022-10-16T06:45:59;4.15;;;2.78;;
62933;SDS011;49038;47.600;19.242;2022-10-16T06:49:02;6.45;;;3.03;;
62933;SDS011;49038;47.600;19.242;2022-10-16T06:52:04;5.05;;;3.17;;
62933;SDS011;49038;47.600;19.242;2022-10-16T06:55:06;5.07;;;3.05;;
62933;SDS011;49038;47.600;19.242;2022-10-16T06:58:09;9.23;;;3.65;;
62933;SDS011;49038;47.600;19.242;2022-10-16T07:01:11;5.15;;;3.35;;
62933;SDS011;49038;47.600;19.242;2022-10-16T07:04:14;4.60;;;3.00;;
62933;SDS011;49038;47.600;19.242;2022-10-16T07:07:16;5.57;;;3.20;;
62933;SDS011;49038;47.600;19.242;2022-10-16T07:10:18;4.82;;;2.70;;
62933;SDS011;49038;47.600;19.242;2022-10-16T07:13:21;11.60;;;3.22;;
62933;SDS011;49038;47.600;19.242;2022-10-16T07:16:24;6.05;;;3.70;;
62933;SDS011;49038;47.600;19.242;2022-10-16T07:19:27;7.20;;;3.15;;
62933;SDS011;49038;47.600;19.242;2022-10-16T07:22:34;4.78;;;2.95;;
62933;SDS011;49038;47.600;19.242;2022-10-16T07:25:36;7.37;;;3.45;;
62933;SDS011;49038;47.600;19.242;2022-10-16T07:28:39;5.55;;;3.70;;
62933;SDS011;49038;47.600;19.242;2022-10-16T07:31:42;4.53;;;2.80;;
62933;SDS011;49038;47.600;19.242;2022-10-16T07:34:45;5.05;;;3.30;;
62933;SDS011;49038;47.600;19.242;2022-10-16T07:37:47;5.95;;;3.37;;
62933;SDS011;49038;47.600;19.242;2022-10-16T07:41:03;5.10;;;2.97;;
62933;SDS011;49038;47.600;19.242;2022-10-16T07:44:06;7.07;;;2.95;;
62933;SDS011;49038;47.600;19.242;2022-10-16T07:47:08;5.70;;;3.70;;
62933;SDS011;49038;47.600;19.242;2022-10-16T07:50:10;4.50;;;3.20;;
62933;SDS011;49038;47.600;19.242;2022-10-16T07:53:13;6.28;;;3.45;;
62933;SDS011;49038;47.600;19.242;2022-10-16T07:56:15;5.00;;;2.83;;
62933;SDS011;49038;47.600;19.242;2022-10-16T07:59:18;4.80;;;2.90;;
62933;SDS011;49038;47.600;19.242;2022-10-16T08:02:20;6.32;;;3.35;;
62933;SDS011;49038;47.600;19.242;2022-10-16T08:05:22;4.57;;;3.22;;
62933;SDS011;49038;47.600;19.242;2022-10-16T08:08:24;5.90;;;3.67;;
62933;SDS011;49038;47.600;19.242;2022-10-16T08:11:27;4.05;;;3.03;;
62933;SDS011;49038;47.600;19.242;2022-10-16T08:14:29;4.87;;;3.80;;
62933;SDS011;49038;47.600;19.242;2022-10-16T08:17:31;4.87;;;3.50;;
62933;SDS011;49038;47.600;19.242;2022-10-16T08:20:33;4.15;;;3.00;;
62933;SDS011;49038;47.600;19.242;2022-10-16T08:23:35;5.90;;;3.70;;
62933;SDS011;49038;47.600;19.242;2022-10-16T08:26:38;6.18;;;3.90;;
62933;SDS011;49038;47.600;19.242;2022-10-16T08:29:40;6.32;;;3.28;;
62933;SDS011;49038;47.600;19.242;2022-10-16T08:32:42;4.80;;;2.97;;
62933;SDS011;49038;47.600;19.242;2022-10-16T08:35:51;10.00;;;3.97;;
62933;SDS011;49038;47.600;19.242;2022-10-16T08:38:55;6.50;;;3.50;;
62933;SDS011;49038;47.600;19.242;2022-10-16T08:42:01;3.75;;;3.22;;
62933;SDS011;49038;47.600;19.242;2022-10-16T08:48:46;5.40;;;3.60;;
62933;SDS011;49038;47.600;19.242;2022-10-16T08:51:50;6.30;;;4.10;;
62933;SDS011;49038;47.600;19.242;2022-10-16T08:54:53;4.40;;;2.72;;
62933;SDS011;49038;47.600;19.242;2022-10-16T08:57:57;4.78;;;3.30;;
62933;SDS011;49038;47.600;19.242;2022-10-16T09:01:01;4.93;;;3.50;;
62933;SDS011;49038;47.600;19.242;2022-10-16T09:11:21;6.62;;;3.62;;
62933;SDS011;49038;47.600;19.242;2022-10-16T09:21:24;4.43;;;2.72;;
62933;SDS011;49038;47.600;19.242;2022-10-16T09:24:29;5.53;;;3.00;;
62933;SDS011;49038;47.600;19.242;2022-10-16T09:27:31;5.30;;;2.62;;
62933;SDS011;49038;47.600;19.242;2022-10-16T09:30:34;5.07;;;3.62;;
62933;SDS011;49038;47.600;19.242;2022-10-16T09:33:36;4.20;;;2.90;;
62933;SDS011;49038;47.600;19.242;2022-10-16T09:36:40;5.25;;;3.03;;
62933;SDS011;49038;47.600;19.242;2022-10-16T09:39:45;4.60;;;3.12;;
62933;SDS011;49038;47.600;19.242;2022-10-16T09:42:47;8.75;;;3.08;;
62933;SDS011;49038;47.600;19.242;2022-10-16T09:46:00;4.25;;;2.95;;
62933;SDS011;49038;47.600;19.242;2022-10-16T09:49:49;6.40;;;3.28;;
62933;SDS011;49038;47.600;19.242;2022-10-16T09:52:34;7.25;;;3.37;;
62933;SDS011;49038;47.600;19.242;2022-10-16T09:55:47;3.80;;;3.00;;
62933;SDS011;49038;47.600;19.242;2022-10-16T09:58:51;6.32;;;2.80;;
62933;SDS011;49038;47.600;19.242;2022-10-16T10:01:54;5.55;;;3.10;;
62933;SDS011;49038;47.600;19.242;2022-10-16T10:04:57;6.80;;;2.80;;
62933;SDS011;49038;47.600;19.242;2022-10-16T10:07:59;4.25;;;2.78;;
62933;SDS011;49038;47.600;19.242;2022-10-16T10:11:07;3.78;;;2.60;;
62933;SDS011;49038;47.600;19.242;2022-10-16T10:17:25;9.18;;;4.40;;
62933;SDS011;49038;47.600;19.242;2022-10-16T10:20:29;5.00;;;2.80;;
62933;SDS011;49038;47.600;19.242;2022-10-16T10:23:35;3.95;;;2.53;;
62933;SDS011;49038;47.600;19.242;2022-10-16T10:26:38;6.18;;;4.20;;
62933;SDS011;49038;47.600;19.242;2022-10-16T10:39:43;3.90;;;2.50;;
62933;SDS011;49038;47.600;19.242;2022-10-16T10:43:00;3.70;;;2.53;;
62933;SDS011;49038;47.600;19.242;2022-10-16T10:46:08;2.80;;;2.40;;
62933;SDS011;49038;47.600;19.242;2022-10-16T10:52:33;2.90;;;2.60;;
62933;SDS011;49038;47.600;19.242;2022-10-16T10:55:44;6.70;;;2.78;;
62933;SDS011;49038;47.600;19.242;2022-10-16T11:12:11;3.10;;;2.25;;
62933;SDS011;49038;47.600;19.242;2022-10-16T11:15:23;3.55;;;2.50;;
62933;SDS011;49038;47.600;19.242;2022-10-16T11:18:33;4.15;;;2.53;;
62933;SDS011;49038;47.600;19.242;2022-10-16T11:21:54;3.10;;;2.30;;
62933;SDS011;49038;47.600;19.242;2022-10-16T11:28:23;4.40;;;2.55;;
62933;SDS011;49038;47.600;19.242;2022-10-16T11:31:36;4.07;;;2.42;;
62933;SDS011;49038;47.600;19.242;2022-10-16T11:34:42;4.18;;;2.40;;
62933;SDS011;49038;47.600;19.242;2022-10-16T11:37:49;5.10;;;2.22;;
62933;SDS011;49038;47.600;19.242;2022-10-16T11:40:54;3.67;;;2.55;;
62933;SDS011;49038;47.600;19.242;2022-10-16T11:51:13;7.37;;;2.50;;
62933;SDS011;49038;47.600;19.242;2022-10-16T11:57:43;2.33;;;2.10;;
62933;SDS011;49038;47.600;19.242;2022-10-16T12:00:55;2.65;;;1.95;;
62933;SDS011;49038;47.600;19.242;2022-10-16T12:04:12;6.75;;;2.65;;
62933;SDS011;49038;47.600;19.242;2022-10-16T12:07:24;5.87;;;2.35;;
62933;SDS011;49038;47.600;19.242;2022-10-16T12:10:29;2.83;;;2.28;;
62933;SDS011;49038;47.600;19.242;2022-10-16T12:13:34;3.95;;;2.60;;
62933;SDS011;49038;47.600;19.242;2022-10-16T12:16:39;3.25;;;2.33;;
62933;SDS011;49038;47.600;19.242;2022-10-16T12:23:25;3.60;;;2.35;;
62933;SDS011;49038;47.600;19.242;2022-10-16T12:26:29;4.25;;;2.40;;
62933;SDS011;49038;47.600;19.242;2022-10-16T12:29:38;3.22;;;2.40;;
62933;SDS011;49038;47.600;19.242;2022-10-16T12:32:42;3.85;;;2.20;;
62933;SDS011;49038;47.600;19.242;2022-10-16T12:35:48;4.25;;;2.10;;
62933;SDS011;49038;47.600;19.242;2022-10-16T12:38:51;2.60;;;2.30;;
62933;SDS011;49038;47.600;19.242;2022-10-16T12:42:00;3.20;;;2.00;;
62933;SDS011;49038;47.600;19.242;2022-10-16T12:45:13;3.37;;;2.00;;
62933;SDS011;49038;47.600;19.242;2022-10-16T12:48:25;2.92;;;1.92;;
62933;SDS011;49038;47.600;19.242;2022-10-16T12:51:47;4.93;;;2.28;;
62933;SDS011;49038;47.600;19.242;2022-10-16T12:54:50;3.60;;;2.30;;
62933;SDS011;49038;47.600;19.242;2022-10-16T13:11:06;5.28;;;2.30;;
62933;SDS011;49038;47.600;19.242;2022-10-16T13:14:54;3.87;;;2.33;;
62933;SDS011;49038;47.600;19.242;2022-10-16T13:21:42;3.47;;;2.53;;
62933;SDS011;49038;47.600;19.242;2022-10-16T13:28:40;3.05;;;2.12;;
62933;SDS011;49038;47.600;19.242;2022-10-16T13:31:42;3.25;;;2.20;;
62933;SDS011;49038;47.600;19.242;2022-10-16T13:34:45;5.28;;;2.20;;
62933;SDS011;49038;47.600;19.242;2022-10-16T13:37:49;4.20;;;2.47;;
62933;SDS011;49038;47.600;19.242;2022-10-16T13:43:58;3.35;;;2.30;;
62933;SDS011;49038;47.600;19.242;2022-10-16T13:47:00;4.50;;;2.12;;
62933;SDS011;49038;47.600;19.242;2022-10-16T13:50:09;5.47;;;2.40;;
62933;SDS011;49038;47.600;19.242;2022-10-16T13:53:14;2.80;;;2.25;;
62933;SDS011;49038;47.600;19.242;2022-10-16T13:56:18;2.62;;;2.08;;
62933;SDS011;49038;47.600;19.242;2022-10-16T13:59:25;2.30;;;2.05;;
62933;SDS011;49038;47.600;19.242;2022-10-16T14:05:49;3.70;;;2.60;;
62933;SDS011;49038;47.600;19.242;2022-10-16T14:09:06;3.65;;;2.95;;
62933;SDS011;49038;47.600;19.242;2022-10-16T14:12:10;4.07;;;2.97;;
62933;SDS011;49038;47.600;19.242;2022-10-16T14:15:17;2.67;;;2.08;;
62933;SDS011;49038;47.600;19.242;2022-10-16T14:18:21;9.15;;;2.35;;
62933;SDS011;49038;47.600;19.242;2022-10-16T14:21:25;3.25;;;2.25;;
62933;SDS011;49038;47.600;19.242;2022-10-16T14:24:32;4.47;;;2.10;;
62933;SDS011;49038;47.600;19.242;2022-10-16T14:27:35;3.12;;;2.08;;
62933;SDS011;49038;47.600;19.242;2022-10-16T14:30:48;2.35;;;2.00;;
62933;SDS011;49038;47.600;19.242;2022-10-16T14:33:56;2.05;;;1.85;;
62933;SDS011;49038;47.600;19.242;2022-10-16T14:37:00;2.55;;;2.00;;
62933;SDS011;49038;47.600;19.242;2022-10-16T14:40:14;5.40;;;2.20;;
62933;SDS011;49038;47.600;19.242;2022-10-16T14:43:20;3.55;;;2.30;;
62933;SDS011;49038;47.600;19.242;2022-10-16T14:46:29;2.90;;;1.85;;
62933;SDS011;49038;47.600;19.242;2022-10-16T14:49:34;2.75;;;2.10;;
62933;SDS011;49038;47.600;19.242;2022-10-16T14:52:36;3.08;;;2.37;;
62933;SDS011;49038;47.600;19.242;2022-10-16T14:55:38;3.05;;;2.05;;
62933;SDS011;49038;47.600;19.242;2022-10-16T14:58:42;2.90;;;2.12;;
62933;SDS011;49038;47.600;19.242;2022-10-16T15:01:44;4.62;;;1.95;;
62933;SDS011;49038;47.600;19.242;2022-10-16T15:04:47;3.25;;;2.05;;
62933;SDS011;49038;47.600;19.242;2022-10-16T15:07:49;5.87;;;2.22;;
62933;SDS011;49038;47.600;19.242;2022-10-16T15:10:52;3.72;;;2.40;;
62933;SDS011;49038;47.600;19.242;2022-10-16T15:13:54;3.15;;;2.08;;
62933;SDS011;49038;47.600;19.242;2022-10-16T15:16:56;2.87;;;2.10;;
62933;SDS011;49038;47.600;19.242;2022-10-16T15:19:59;3.85;;;2.35;;
62933;SDS011;49038;47.600;19.242;2022-10-16T15:23:02;6.50;;;2.33;;
62933;SDS011;49038;47.600;19.242;2022-10-16T15:26:05;7.93;;;2.42;;
62933;SDS011;49038;47.600;19.242;2022-10-16T15:29:07;5.15;;;3.37;;
62933;SDS011;49038;47.600;19.242;2022-10-16T15:32:10;45.90;;;22.92;;
62933;SDS011;49038;47.600;19.242;2022-10-16T15:35:12;67.03;;;34.63;;
62933;SDS011;49038;47.600;19.242;2022-10-16T15:38:15;39.45;;;23.92;;
62933;SDS011;49038;47.600;19.242;2022-10-16T15:41:18;19.33;;;9.25;;
62933;SDS011;49038;47.600;19.242;2022-10-16T15:44:20;11.32;;;7.85;;
62933;SDS011;49038;47.600;19.242;2022-10-16T15:47:24;7.95;;;5.47;;
62933;SDS011;49038;47.600;19.242;2022-10-16T15:50:27;7.70;;;5.05;;
62933;SDS011;49038;47.600;19.242;2022-10-16T15:53:30;5.93;;;3.53;;
62933;SDS011;49038;47.600;19.242;2022-10-16T15:56:32;5.15;;;3.08;;
62933;SDS011;49038;47.600;19.242;2022-10-16T15:59:35;6.62;;;3.70;;
62933;SDS011;49038;47.600;19.242;2022-10-16T16:02:37;8.38;;;4.12;;
62933;SDS011;49038;47.600;19.242;2022-10-16T16:05:40;5.55;;;3.60;;
62933;SDS011;49038;47.600;19.242;2022-10-16T16:08:47;6.55;;;3.83;;
62933;SDS011;49038;47.600;19.242;2022-10-16T16:11:49;8.98;;;2.90;;
62933;SDS011;49038;47.600;19.242;2022-10-16T16:14:53;9.18;;;4.50;;
62933;SDS011;49038;47.600;19.242;2022-10-16T16:17:56;9.15;;;3.90;;
62933;SDS011;49038;47.600;19.242;2022-10-16T16:20:58;9.23;;;4.97;;
62933;SDS011;49038;47.600;19.242;2022-10-16T16:24:00;9.15;;;5.47;;
62933;SDS011;49038;47.600;19.242;2022-10-16T16:27:02;12.80;;;5.43;;
62933;SDS011;49038;47.600;19.242;2022-10-16T16:30:05;10.27;;;5.20;;
62933;SDS011;49038;47.600;19.242;2022-10-16T16:33:09;10.82;;;6.00;;
62933;SDS011;49038;47.600;19.242;2022-10-16T16:36:11;12.23;;;7.20;;
62933;SDS011;49038;47.600;19.242;2022-10-16T16:39:16;10.43;;;6.35;;
62933;SDS011;49038;47.600;19.242;2022-10-16T16:42:19;15.48;;;6.85;;
62933;SDS011;49038;47.600;19.242;2022-10-16T16:45:21;13.75;;;7.85;;
62933;SDS011;49038;47.600;19.242;2022-10-16T16:48:23;13.68;;;8.30;;
62933;SDS011;49038;47.600;19.242;2022-10-16T16:51:26;20.75;;;11.48;;
62933;SDS011;49038;47.600;19.242;2022-10-16T16:54:29;21.12;;;10.80;;
62933;SDS011;49038;47.600;19.242;2022-10-16T16:57:32;23.55;;;10.90;;
62933;SDS011;49038;47.600;19.242;2022-10-16T17:00:34;28.73;;;13.02;;
62933;SDS011;49038;47.600;19.242;2022-10-16T17:03:36;21.87;;;10.73;;
62933;SDS011;49038;47.600;19.242;2022-10-16T17:06:39;17.83;;;9.02;;
62933;SDS011;49038;47.600;19.242;2022-10-16T17:09:42;17.90;;;9.23;;
62933;SDS011;49038;47.600;19.242;2022-10-16T17:12:44;20.10;;;9.23;;
62933;SDS011;49038;47.600;19.242;2022-10-16T17:15:47;18.08;;;10.32;;
62933;SDS011;49038;47.600;19.242;2022-10-16T17:18:50;18.27;;;9.82;;
62933;SDS011;49038;47.600;19.242;2022-10-16T17:21:54;17.83;;;10.52;;
62933;SDS011;49038;47.600;19.242;2022-10-16T17:24:56;18.80;;;10.27;;
62933;SDS011;49038;47.600;19.242;2022-10-16T17:27:58;19.80;;;8.85;;
62933;SDS011;49038;47.600;19.242;2022-10-16T17:31:08;17.98;;;9.65;;
62933;SDS011;49038;47.600;19.242;2022-10-16T17:34:15;19.70;;;8.30;;
62933;SDS011;49038;47.600;19.242;2022-10-16T17:37:17;17.45;;;9.00;;
62933;SDS011;49038;47.600;19.242;2022-10-16T17:40:19;16.62;;;8.60;;
62933;SDS011;49038;47.600;19.242;2022-10-16T17:43:22;16.20;;;7.90;;
62933;SDS011;49038;47.600;19.242;2022-10-16T17:46:25;17.10;;;7.45;;
62933;SDS011;49038;47.600;19.242;2022-10-16T17:49:27;17.40;;;7.80;;
62933;SDS011;49038;47.600;19.242;2022-10-16T17:52:29;19.27;;;9.25;;
62933;SDS011;49038;47.600;19.242;2022-10-16T17:55:36;20.35;;;8.35;;
62933;SDS011;49038;47.600;19.242;2022-10-16T17:58:42;15.07;;;7.95;;
62933;SDS011;49038;47.600;19.242;2022-10-16T18:01:48;18.33;;;9.52;;
62933;SDS011;49038;47.600;19.242;2022-10-16T18:04:50;12.93;;;7.20;;
62933;SDS011;49038;47.600;19.242;2022-10-16T18:07:52;15.30;;;7.97;;
62933;SDS011;49038;47.600;19.242;2022-10-16T18:10:55;12.93;;;7.80;;
62933;SDS011;49038;47.600;19.242;2022-10-16T18:13:58;14.60;;;6.90;;
62933;SDS011;49038;47.600;19.242;2022-10-16T18:17:00;9.75;;;5.10;;
62933;SDS011;49038;47.600;19.242;2022-10-16T18:20:03;10.80;;;5.15;;
62933;SDS011;49038;47.600;19.242;2022-10-16T18:23:06;9.73;;;4.45;;
62933;SDS011;49038;47.600;19.242;2022-10-16T18:26:09;15.07;;;6.10;;
62933;SDS011;49038;47.600;19.242;2022-10-16T18:29:12;10.23;;;5.03;;
62933;SDS011;49038;47.600;19.242;2022-10-16T18:32:14;8.30;;;4.30;;
62933;SDS011;49038;47.600;19.242;2022-10-16T18:35:16;6.95;;;4.45;;
62933;SDS011;49038;47.600;19.242;2022-10-16T18:38:19;8.95;;;4.72;;
62933;SDS011;49038;47.600;19.242;2022-10-16T18:41:22;7.75;;;5.05;;
62933;SDS011;49038;47.600;19.242;2022-10-16T18:44:25;7.03;;;5.00;;
62933;SDS011;49038;47.600;19.242;2022-10-16T18:47:28;6.43;;;3.62;;
62933;SDS011;49038;47.600;19.242;2022-10-16T18:50:30;11.18;;;7.00;;
62933;SDS011;49038;47.600;19.242;2022-10-16T18:53:33;9.88;;;5.55;;
62933;SDS011;49038;47.600;19.242;2022-10-16T18:56:35;12.95;;;6.10;;
62933;SDS011;49038;47.600;19.242;2022-10-16T18:59:37;5.40;;;3.47;;
62933;SDS011;49038;47.600;19.242;2022-10-16T19:02:40;3.60;;;2.67;;
62933;SDS011;49038;47.600;19.242;2022-10-16T19:05:43;5.28;;;2.70;;
62933;SDS011;49038;47.600;19.242;2022-10-16T19:08:47;4.32;;;2.90;;
62933;SDS011;49038;47.600;19.242;2022-10-16T19:11:49;5.80;;;3.30;;
62933;SDS011;49038;47.600;19.242;2022-10-16T19:14:52;4.53;;;2.65;;
62933;SDS011;49038;47.600;19.242;2022-10-16T19:17:55;4.15;;;2.70;;
62933;SDS011;49038;47.600;19.242;2022-10-16T19:21:00;8.32;;;4.40;;
62933;SDS011;49038;47.600;19.242;2022-10-16T19:24:03;6.40;;;2.62;;
62933;SDS011;49038;47.600;19.242;2022-10-16T19:27:05;3.08;;;2.50;;
62933;SDS011;49038;47.600;19.242;2022-10-16T19:30:08;2.80;;;2.35;;
62933;SDS011;49038;47.600;19.242;2022-10-16T19:33:11;5.50;;;2.80;;
62933;SDS011;49038;47.600;19.242;2022-10-16T19:39:34;5.95;;;2.53;;
62933;SDS011;49038;47.600;19.242;2022-10-16T19:42:37;7.90;;;2.58;;
62933;SDS011;49038;47.600;19.242;2022-10-16T19:45:44;3.33;;;2.20;;
62933;SDS011;49038;47.600;19.242;2022-10-16T19:48:46;3.47;;;2.20;;
62933;SDS011;49038;47.600;19.242;2022-10-16T19:51:49;6.05;;;2.22;;
62933;SDS011;49038;47.600;19.242;2022-10-16T19:54:53;5.85;;;2.25;;
62933;SDS011;49038;47.600;19.242;2022-10-16T19:57:58;5.07;;;3.00;;
62933;SDS011;49038;47.600;19.242;2022-10-16T20:01:00;5.25;;;3.05;;
62933;SDS011;49038;47.600;19.242;2022-10-16T20:04:02;4.62;;;3.35;;